createdAt,value
2018-10-17T00:02:24.801Z,20.00
2018-10-17T00:04:52.163Z,20.00
2018-10-17T00:07:19.689Z,20.00
2018-10-17T00:09:47.113Z,20.00
2018-10-17T00:12:14.531Z,20.00
2018-10-17T00:14:41.897Z,20.00
2018-10-17T00:17:09.526Z,20.00
2018-10-17T00:19:37.269Z,20.00
2018-10-17T00:22:05.069Z,20.00
2018-10-17T00:24:32.394Z,20.00
2018-10-17T00:26:59.774Z,19.90
2018-10-17T00:29:27.325Z,20.10
2018-10-17T00:31:54.688Z,19.90
2018-10-17T00:34:22.061Z,19.90
2018-10-17T00:36:49.505Z,19.90
2018-10-17T00:39:16.842Z,19.90
2018-10-17T00:41:44.188Z,19.90
2018-10-17T00:44:11.532Z,19.90
2018-10-17T00:46:38.950Z,19.90
2018-10-17T00:49:06.308Z,19.90
2018-10-17T00:51:33.676Z,19.90
2018-10-17T00:54:01.032Z,19.90
2018-10-17T00:56:28.410Z,19.80
2018-10-17T00:59:05.034Z,19.80
2018-10-17T01:01:32.337Z,19.90
2018-10-17T01:03:59.766Z,19.80
2018-10-17T01:06:27.145Z,19.80
2018-10-17T01:08:54.481Z,19.80
2018-10-17T01:11:21.903Z,19.80
2018-10-17T01:13:49.332Z,19.80
2018-10-17T01:16:16.714Z,19.80
2018-10-17T01:18:44.104Z,19.80
2018-10-17T01:21:11.495Z,19.70
2018-10-17T01:23:38.857Z,19.70
2018-10-17T01:26:06.261Z,19.80
2018-10-17T01:28:33.594Z,19.70
2018-10-17T01:31:01.003Z,19.70
2018-10-17T01:33:28.430Z,19.70
2018-10-17T01:35:56.003Z,19.70
2018-10-17T01:38:23.417Z,19.70
2018-10-17T01:40:50.879Z,19.70
2018-10-17T01:43:18.251Z,19.60
2018-10-17T01:45:45.576Z,19.70
2018-10-17T01:48:13.013Z,19.70
2018-10-17T01:50:40.452Z,19.70
2018-10-17T01:53:07.931Z,19.60
2018-10-17T01:55:35.325Z,19.60
2018-10-17T01:58:02.871Z,19.80
2018-10-17T02:00:30.403Z,19.60
2018-10-17T02:02:57.754Z,19.60
2018-10-17T02:05:25.158Z,19.60
2018-10-17T02:07:52.484Z,19.60
2018-10-17T02:10:19.845Z,19.60
2018-10-17T02:12:47.228Z,19.60
2018-10-17T02:15:14.822Z,19.50
2018-10-17T02:17:42.292Z,19.50
2018-10-17T02:20:09.721Z,19.50
2018-10-17T02:22:37.102Z,19.50
2018-10-17T02:25:05.221Z,19.50
2018-10-17T02:27:32.607Z,19.50
2018-10-17T02:30:00.000Z,19.50
2018-10-17T02:32:27.377Z,19.50
2018-10-17T02:35:00.362Z,19.50
2018-10-17T02:37:27.626Z,19.50
2018-10-17T02:39:54.990Z,19.30
2018-10-17T02:42:22.316Z,19.40
2018-10-17T02:44:49.709Z,19.40
2018-10-17T02:47:17.113Z,19.40
2018-10-17T02:49:44.497Z,19.40
2018-10-17T02:52:11.850Z,19.40
2018-10-17T02:54:39.299Z,19.40
2018-10-17T02:57:06.723Z,19.40
2018-10-17T02:59:34.097Z,19.40
2018-10-17T03:02:01.459Z,19.30
2018-10-17T03:04:28.817Z,19.40
2018-10-17T03:06:56.252Z,19.30
2018-10-17T03:09:23.619Z,19.30
2018-10-17T03:11:51.014Z,19.30
2018-10-17T03:14:18.409Z,19.40
2018-10-17T03:16:45.966Z,19.30
2018-10-17T03:19:13.374Z,19.30
2018-10-17T03:21:40.709Z,19.30
2018-10-17T03:24:08.022Z,19.30
2018-10-17T03:26:35.393Z,19.30
2018-10-17T03:29:02.821Z,19.30
2018-10-17T03:31:30.198Z,19.40
2018-10-17T03:33:57.554Z,19.30
2018-10-17T03:36:24.889Z,19.20
2018-10-17T03:38:52.272Z,19.40
2018-10-17T03:41:19.616Z,19.20
2018-10-17T03:43:46.979Z,19.20
2018-10-17T03:46:14.368Z,19.20
2018-10-17T03:48:41.794Z,19.20
2018-10-17T03:51:09.182Z,19.20
2018-10-17T03:53:36.567Z,19.20
2018-10-17T03:56:04.093Z,19.20
2018-10-17T03:58:31.498Z,19.20
2018-10-17T04:00:58.935Z,19.10
2018-10-17T04:03:26.348Z,19.10
2018-10-17T04:05:53.790Z,19.10
2018-10-17T04:08:21.237Z,19.00
2018-10-17T04:10:48.665Z,19.10
2018-10-17T04:13:16.117Z,19.00
2018-10-17T04:15:43.566Z,19.00
2018-10-17T04:18:11.012Z,19.00
2018-10-17T04:20:39.091Z,18.90
2018-10-17T04:23:06.528Z,19.00
2018-10-17T04:25:33.990Z,18.90
2018-10-17T04:28:01.428Z,18.90
2018-10-17T04:30:28.839Z,18.90
2018-10-17T04:32:56.401Z,18.90
2018-10-17T04:35:23.770Z,18.90
2018-10-17T04:37:51.190Z,18.80
2018-10-17T04:40:18.666Z,18.90
2018-10-17T04:42:46.219Z,18.80
2018-10-17T04:45:13.659Z,18.80
2018-10-17T04:47:41.236Z,18.80
2018-10-17T04:50:09.579Z,18.80
2018-10-17T04:52:37.004Z,18.80
2018-10-17T04:55:05.349Z,18.90
2018-10-17T04:57:32.634Z,18.80
2018-10-17T04:59:59.988Z,18.80
2018-10-17T05:02:27.293Z,18.70
2018-10-17T05:04:54.698Z,18.70
2018-10-17T05:07:22.292Z,18.70
2018-10-17T05:09:52.958Z,18.70
2018-10-17T05:12:20.296Z,18.80
2018-10-17T05:14:47.768Z,18.90
2018-10-17T05:17:15.296Z,18.70
2018-10-17T05:19:42.668Z,18.70
2018-10-17T05:22:10.088Z,18.70
2018-10-17T05:24:37.486Z,18.60
2018-10-17T05:27:05.096Z,18.70
2018-10-17T05:29:32.584Z,18.70
2018-10-17T05:32:01.760Z,18.60
2018-10-17T05:34:29.286Z,18.60
2018-10-17T05:36:56.826Z,18.60
2018-10-17T05:39:24.256Z,18.60
2018-10-17T05:41:51.746Z,18.60
2018-10-17T05:44:19.571Z,18.60
2018-10-17T05:46:46.999Z,18.60
2018-10-17T05:49:14.507Z,18.50
2018-10-17T05:51:41.901Z,18.60
2018-10-17T05:54:09.318Z,18.50
2018-10-17T05:56:36.756Z,18.40
2018-10-17T05:59:04.426Z,18.50
2018-10-17T06:01:31.928Z,18.50
2018-10-17T06:03:59.339Z,18.50
2018-10-17T06:06:26.808Z,18.30
2018-10-17T06:08:54.245Z,18.50
2018-10-17T06:11:21.672Z,18.50
2018-10-17T06:13:49.801Z,18.50
2018-10-17T06:16:17.223Z,18.50
2018-10-17T06:18:44.699Z,18.50
2018-10-17T06:21:12.298Z,18.50
2018-10-17T06:23:39.702Z,18.40
2018-10-17T06:26:07.151Z,18.50
2018-10-17T06:28:34.522Z,18.50
2018-10-17T06:31:02.116Z,18.40
2018-10-17T06:33:29.635Z,18.40
2018-10-17T06:35:57.000Z,18.70
2018-10-17T06:38:24.508Z,18.40
2018-10-17T06:40:52.244Z,18.40
2018-10-17T06:43:19.746Z,18.40
2018-10-17T06:45:47.170Z,18.40
2018-10-17T06:48:14.637Z,18.40
2018-10-17T06:50:42.122Z,18.40
2018-10-17T06:53:09.543Z,18.20
2018-10-17T06:55:36.918Z,18.40
2018-10-17T06:58:05.307Z,18.40
2018-10-17T07:00:32.777Z,18.40
2018-10-17T07:03:00.198Z,18.40
2018-10-17T07:05:28.590Z,18.40
2018-10-17T07:07:56.142Z,18.40
2018-10-17T07:10:23.571Z,18.30
2018-10-17T07:12:51.068Z,18.40
2018-10-17T07:15:18.657Z,18.40
2018-10-17T07:17:46.030Z,18.40
2018-10-17T07:20:13.541Z,18.40
2018-10-17T07:22:40.904Z,18.40
2018-10-17T07:25:08.394Z,18.40
2018-10-17T07:27:36.466Z,18.40
2018-10-17T07:30:05.418Z,18.40
2018-10-17T07:32:32.869Z,18.40
2018-10-17T07:35:00.266Z,18.40
2018-10-17T07:37:27.815Z,18.40
2018-10-17T07:39:55.346Z,18.40
2018-10-17T07:42:22.820Z,18.40
2018-10-17T07:44:50.221Z,18.40
2018-10-17T07:47:17.686Z,18.40
2018-10-17T07:49:45.164Z,18.40
2018-10-17T07:52:12.668Z,18.40
2018-10-17T07:54:40.063Z,18.40
2018-10-17T07:57:07.641Z,18.40
2018-10-17T07:59:35.270Z,18.40
2018-10-17T08:02:02.730Z,18.50
2018-10-17T08:04:30.203Z,18.40
2018-10-17T08:06:57.695Z,18.40
2018-10-17T08:09:25.175Z,18.50
2018-10-17T08:11:52.648Z,18.50
2018-10-17T08:14:20.053Z,18.50
2018-10-17T08:16:47.528Z,18.20
2018-10-17T08:19:14.959Z,18.50
2018-10-17T08:21:42.504Z,18.50
2018-10-17T08:24:10.070Z,18.50
2018-10-17T08:26:37.489Z,18.60
2018-10-17T08:29:05.117Z,18.60
2018-10-17T08:31:33.145Z,18.60
2018-10-17T08:34:01.362Z,18.60
2018-10-17T08:36:29.662Z,18.80
2018-10-17T08:38:56.770Z,18.60
2018-10-17T08:41:26.667Z,18.70
2018-10-17T08:43:54.075Z,18.70
2018-10-17T08:46:21.596Z,18.70
2018-10-17T08:48:49.381Z,18.70
2018-10-17T08:51:17.230Z,18.70
2018-10-17T08:53:44.678Z,18.70
2018-10-17T08:56:12.261Z,18.70
2018-10-17T08:58:39.655Z,18.80
2018-10-17T09:01:07.143Z,18.80
2018-10-17T09:03:34.576Z,18.80
2018-10-17T09:06:02.275Z,18.60
2018-10-17T09:08:29.710Z,18.80
2018-10-17T09:10:57.174Z,18.80
2018-10-17T09:13:25.479Z,18.90
2018-10-17T09:15:53.046Z,18.80
2018-10-17T09:18:20.573Z,18.90
2018-10-17T09:20:48.509Z,18.90
2018-10-17T09:23:15.602Z,18.90
2018-10-17T09:25:43.115Z,18.90
2018-10-17T09:28:10.755Z,18.90
2018-10-17T09:30:38.152Z,18.90
2018-10-17T09:33:05.583Z,19.00
2018-10-17T09:35:33.162Z,19.00
2018-10-17T09:38:00.647Z,19.00
2018-10-17T09:40:28.212Z,19.00
2018-10-17T09:42:55.602Z,19.00
2018-10-17T09:45:23.046Z,19.10
2018-10-17T09:47:50.648Z,19.10
2018-10-17T09:50:18.146Z,19.10
2018-10-17T09:52:45.842Z,19.10
2018-10-17T09:55:14.655Z,19.10
2018-10-17T09:57:42.063Z,19.10
2018-10-17T10:00:16.599Z,18.90
2018-10-17T10:02:44.180Z,19.10
2018-10-17T10:05:11.586Z,19.20
2018-10-17T10:07:39.246Z,19.20
2018-10-17T10:10:07.383Z,19.20
2018-10-17T10:12:35.169Z,19.20
2018-10-17T10:15:03.138Z,19.20
2018-10-17T10:17:30.748Z,19.20
2018-10-17T10:19:58.424Z,19.30
2018-10-17T10:22:26.230Z,19.30
2018-10-17T10:24:53.874Z,19.30
2018-10-17T10:27:21.251Z,19.30
2018-10-17T10:29:48.916Z,19.30
2018-10-17T10:32:16.696Z,19.40
2018-10-17T10:34:44.169Z,19.40
2018-10-17T10:37:11.983Z,19.40
2018-10-17T10:39:39.486Z,19.40
2018-10-17T10:42:07.038Z,19.50
2018-10-17T10:44:34.621Z,19.20
2018-10-17T10:47:02.108Z,19.50
2018-10-17T10:49:29.660Z,19.50
2018-10-17T10:51:57.235Z,19.40
2018-10-17T10:54:24.961Z,19.50
2018-10-17T10:56:53.278Z,19.60
2018-10-17T10:59:21.024Z,19.60
2018-10-17T11:01:48.938Z,19.60
2018-10-17T11:04:16.495Z,19.60
2018-10-17T11:06:44.181Z,19.60
2018-10-17T11:09:11.835Z,19.70
2018-10-17T11:11:39.951Z,19.70
2018-10-17T11:14:22.840Z,19.70
2018-10-17T11:16:50.326Z,19.70
2018-10-17T11:19:17.897Z,19.70
2018-10-17T11:21:45.376Z,19.80
2018-10-17T11:24:12.746Z,19.80
2018-10-17T11:26:40.209Z,19.80
2018-10-17T11:29:07.882Z,19.80
2018-10-17T11:31:35.474Z,19.80
2018-10-17T11:34:02.959Z,19.80
2018-10-17T11:36:30.603Z,19.80
2018-10-17T11:38:58.254Z,19.90
2018-10-17T11:41:25.691Z,19.90
2018-10-17T11:43:53.147Z,19.90
2018-10-17T11:46:20.524Z,20.00
2018-10-17T11:48:47.945Z,20.00
2018-10-17T11:51:15.559Z,20.00
2018-10-17T11:53:43.015Z,20.00
2018-10-17T11:56:10.602Z,19.90
2018-10-17T11:58:38.136Z,20.10
2018-10-17T12:01:05.857Z,20.00
2018-10-17T12:03:33.380Z,20.10
2018-10-17T12:06:00.832Z,20.10
2018-10-17T12:08:28.324Z,20.10
2018-10-17T12:10:55.782Z,20.20
2018-10-17T12:13:23.246Z,20.20
2018-10-17T12:15:50.744Z,20.20
2018-10-17T12:18:18.143Z,20.30
2018-10-17T12:20:45.567Z,20.30
2018-10-17T12:23:14.091Z,20.40
2018-10-17T12:25:41.613Z,20.50
2018-10-17T12:28:10.407Z,20.50
2018-10-17T12:30:38.053Z,20.50
2018-10-17T12:33:05.641Z,20.60
2018-10-17T12:35:32.941Z,20.60
2018-10-17T12:38:00.615Z,20.60
2018-10-17T12:40:28.329Z,20.70
2018-10-17T12:42:55.819Z,20.70
2018-10-17T12:45:23.362Z,20.70
2018-10-17T12:47:50.835Z,20.80
2018-10-17T12:50:18.313Z,20.80
2018-10-17T12:54:54.228Z,20.80
2018-10-17T12:57:21.703Z,20.90
2018-10-17T12:59:49.254Z,21.00
2018-10-17T13:02:16.727Z,20.90
2018-10-17T13:04:44.283Z,21.00
2018-10-17T13:07:11.977Z,21.00
2018-10-17T13:09:39.638Z,21.00
2018-10-17T13:12:07.619Z,21.10
2018-10-17T13:14:35.220Z,21.10
2018-10-17T13:17:03.020Z,21.10
2018-10-17T13:19:30.366Z,21.10
2018-10-17T13:21:57.887Z,21.20
2018-10-17T13:24:25.492Z,21.20
2018-10-17T13:26:53.328Z,21.20
2018-10-17T13:29:20.766Z,21.30
2018-10-17T13:31:48.404Z,21.30
2018-10-17T13:34:15.923Z,21.20
2018-10-17T13:36:43.272Z,21.30
2018-10-17T13:39:12.146Z,21.30
2018-10-17T13:41:39.557Z,21.30
2018-10-17T13:44:08.119Z,21.30
2018-10-17T13:46:35.706Z,21.40
2018-10-17T13:49:03.303Z,21.40
2018-10-17T13:51:30.680Z,21.40
2018-10-17T13:53:58.140Z,21.50
2018-10-17T13:56:25.562Z,21.50
2018-10-17T13:58:52.959Z,21.50
2018-10-17T14:01:20.369Z,21.50
2018-10-17T14:03:47.841Z,21.60
2018-10-17T14:06:15.410Z,21.60
2018-10-17T14:08:42.899Z,21.60
2018-10-17T14:11:10.238Z,21.60
2018-10-17T14:13:37.707Z,21.60
2018-10-17T14:16:05.594Z,21.60
2018-10-17T14:18:32.980Z,21.60
2018-10-17T14:21:00.423Z,21.70
2018-10-17T14:23:27.815Z,21.70
2018-10-17T14:25:55.194Z,21.70
2018-10-17T14:28:22.762Z,21.90
2018-10-17T14:30:50.253Z,21.70
2018-10-17T14:33:17.687Z,21.70
2018-10-17T14:35:45.154Z,21.70
2018-10-17T14:38:12.580Z,21.70
2018-10-17T14:40:42.445Z,21.70
2018-10-17T14:43:10.789Z,21.70
2018-10-17T14:45:38.213Z,21.70
2018-10-17T14:48:05.872Z,21.70
2018-10-17T14:50:33.237Z,21.70
2018-10-17T14:53:00.815Z,21.80
2018-10-17T14:55:28.295Z,21.70
2018-10-17T14:57:55.638Z,21.80
2018-10-17T15:00:23.096Z,21.80
2018-10-17T15:02:50.799Z,21.80
2018-10-17T15:05:18.274Z,21.80
2018-10-17T15:07:45.904Z,21.70
2018-10-17T15:10:13.437Z,21.70
2018-10-17T15:12:40.915Z,21.70
2018-10-17T15:15:09.774Z,21.70
2018-10-17T15:17:37.552Z,21.70
2018-10-17T15:20:05.541Z,21.70
2018-10-17T15:22:33.206Z,21.70
2018-10-17T15:25:00.585Z,21.70
2018-10-17T15:27:28.198Z,21.70
2018-10-17T15:29:55.610Z,21.70
2018-10-17T15:32:23.157Z,21.70
2018-10-17T15:34:50.660Z,21.70
2018-10-17T15:37:18.065Z,21.70
2018-10-17T15:39:45.608Z,21.70
2018-10-17T15:42:13.239Z,21.50
2018-10-17T15:44:40.759Z,21.60
2018-10-17T15:47:08.164Z,21.60
2018-10-17T15:49:35.627Z,21.60
2018-10-17T15:52:03.609Z,21.60
2018-10-17T15:54:30.977Z,21.60
2018-10-17T15:56:58.472Z,21.60
2018-10-17T15:59:26.131Z,21.60
2018-10-17T16:01:53.596Z,21.50
2018-10-17T16:04:21.154Z,21.40
2018-10-17T16:06:48.549Z,21.50
2018-10-17T16:09:15.942Z,21.50
2018-10-17T16:11:43.691Z,21.50
2018-10-17T16:14:11.122Z,21.50
2018-10-17T16:16:38.580Z,21.40
2018-10-17T16:19:06.154Z,21.40
2018-10-17T16:21:33.534Z,21.40
2018-10-17T16:24:01.001Z,21.40
2018-10-17T16:26:28.745Z,21.40
2018-10-17T16:28:56.100Z,21.40
2018-10-17T16:31:23.825Z,21.30
2018-10-17T16:33:51.275Z,21.40
2018-10-17T16:36:18.744Z,21.30
2018-10-17T16:38:46.171Z,21.30
2018-10-17T16:41:13.604Z,21.20
2018-10-17T16:43:41.207Z,21.20
2018-10-17T16:46:08.686Z,21.20
2018-10-17T16:48:36.043Z,21.20
2018-10-17T16:51:03.654Z,21.20
2018-10-17T16:53:31.152Z,21.10
2018-10-17T16:55:58.590Z,21.10
2018-10-17T16:58:26.565Z,21.10
2018-10-17T17:00:53.965Z,21.00
2018-10-17T17:03:21.457Z,21.00
2018-10-17T17:05:49.105Z,21.00
2018-10-17T17:08:16.597Z,21.00
2018-10-17T17:10:44.450Z,20.90
2018-10-17T17:13:11.832Z,20.80
2018-10-17T17:15:39.268Z,20.80
2018-10-17T17:18:07.951Z,20.70
2018-10-17T17:20:35.505Z,20.50
2018-10-17T17:23:02.989Z,20.70
2018-10-17T17:25:33.911Z,20.70
2018-10-17T17:28:01.526Z,20.60
2018-10-17T17:30:28.992Z,20.60
2018-10-17T17:32:56.357Z,20.60
2018-10-17T17:35:23.978Z,20.60
2018-10-17T17:37:51.469Z,20.50
2018-10-17T17:40:18.949Z,20.50
2018-10-17T17:42:46.563Z,20.50
2018-10-17T17:45:14.032Z,20.50
2018-10-17T17:47:41.544Z,20.50
2018-10-17T17:50:09.463Z,20.40
2018-10-17T17:52:36.958Z,20.40
2018-10-17T17:55:05.359Z,20.40
2018-10-17T17:57:32.695Z,20.40
2018-10-17T18:00:00.273Z,20.40
2018-10-17T18:02:27.745Z,20.40
2018-10-17T18:04:55.143Z,20.40
2018-10-17T18:07:22.779Z,20.40
2018-10-17T18:09:50.126Z,20.40
2018-10-17T18:12:24.502Z,20.40
2018-10-17T18:14:51.919Z,20.30
2018-10-17T18:17:19.290Z,20.40
2018-10-17T18:19:46.747Z,20.30
2018-10-17T18:22:14.224Z,20.30
2018-10-17T18:24:41.565Z,20.30
2018-10-17T18:27:23.890Z,20.30
2018-10-17T18:29:51.335Z,20.30
2018-10-17T18:32:19.003Z,20.20
2018-10-17T18:34:46.478Z,20.20
2018-10-17T18:37:13.891Z,20.20
2018-10-17T18:39:41.294Z,20.20
2018-10-17T18:42:08.666Z,20.10
2018-10-17T18:44:36.104Z,20.10
2018-10-17T18:47:03.601Z,20.10
2018-10-17T18:49:31.098Z,20.10
2018-10-17T18:51:58.554Z,20.10
2018-10-17T18:54:26.030Z,20.10
2018-10-17T18:56:53.483Z,20.10
2018-10-17T18:59:20.852Z,20.10
2018-10-17T19:01:48.360Z,20.00
2018-10-17T19:04:15.747Z,20.10
2018-10-17T19:06:43.200Z,20.10
2018-10-17T19:09:12.459Z,20.00
2018-10-17T19:11:39.802Z,20.00
2018-10-17T19:14:07.714Z,20.00
2018-10-17T19:16:35.393Z,20.00
2018-10-17T19:19:02.888Z,20.00
2018-10-17T19:21:30.284Z,20.00
2018-10-17T19:23:57.698Z,20.00
2018-10-17T19:26:25.101Z,20.00
2018-10-17T19:28:52.437Z,20.00
2018-10-17T19:31:19.870Z,20.00
2018-10-17T19:33:47.282Z,20.00
2018-10-17T19:36:14.739Z,20.00
2018-10-17T19:38:42.215Z,20.00
2018-10-17T19:41:09.591Z,19.90
2018-10-17T19:43:36.999Z,20.00
2018-10-17T19:46:04.948Z,19.90
2018-10-17T19:48:33.211Z,19.90
2018-10-17T19:51:01.114Z,19.90
2018-10-17T19:53:28.499Z,19.90
2018-10-17T19:55:55.904Z,19.90
2018-10-17T19:58:23.351Z,19.90
2018-10-17T20:00:50.735Z,19.90
2018-10-17T20:03:18.096Z,19.90
2018-10-17T20:05:45.520Z,19.90
2018-10-17T20:08:12.957Z,19.90
2018-10-17T20:10:40.333Z,19.90
2018-10-17T20:13:07.816Z,19.90
2018-10-17T20:15:35.187Z,19.80
2018-10-17T20:18:02.625Z,19.80
2018-10-17T20:20:30.114Z,19.80
2018-10-17T20:22:57.576Z,19.80
2018-10-17T20:25:24.945Z,19.70
2018-10-17T20:27:52.358Z,19.70
2018-10-17T20:30:19.759Z,19.70
2018-10-17T20:32:47.090Z,19.70
2018-10-17T20:35:14.590Z,19.80
2018-10-17T20:37:41.896Z,19.70
2018-10-17T20:40:09.274Z,19.70
2018-10-17T20:42:36.646Z,19.70
2018-10-17T20:45:04.502Z,19.70
2018-10-17T20:47:31.939Z,19.70
2018-10-17T20:49:59.326Z,19.70
2018-10-17T20:52:26.768Z,19.70
2018-10-17T20:54:54.134Z,19.70
2018-10-17T20:57:21.522Z,20.00
2018-10-17T20:59:48.940Z,19.60
2018-10-17T21:02:16.371Z,19.60
2018-10-17T21:04:43.728Z,19.60
2018-10-17T21:07:11.062Z,19.60
2018-10-17T21:09:38.668Z,19.60
2018-10-17T21:12:06.163Z,19.50
2018-10-17T21:14:33.492Z,19.50
2018-10-17T21:17:00.874Z,19.50
2018-10-17T21:19:28.275Z,19.50
2018-10-17T21:21:55.698Z,19.40
2018-10-17T21:24:23.052Z,19.40
2018-10-17T21:26:50.413Z,19.40
2018-10-17T21:29:17.833Z,19.40
2018-10-17T21:31:45.208Z,19.30
2018-10-17T21:34:12.592Z,19.30
2018-10-17T21:36:39.997Z,19.30
2018-10-17T21:39:09.099Z,19.30
2018-10-17T21:41:36.504Z,19.30
2018-10-17T21:46:54.780Z,19.20
2018-10-17T21:49:22.474Z,19.20
2018-10-17T21:51:50.278Z,19.20
2018-10-17T21:54:18.021Z,19.10
2018-10-17T21:56:46.041Z,19.10
2018-10-17T21:59:13.939Z,19.10
2018-10-17T22:01:41.825Z,19.10
2018-10-17T22:04:09.510Z,19.10
2018-10-17T22:06:37.267Z,18.90
2018-10-17T22:09:07.785Z,19.10
2018-10-17T22:11:35.533Z,19.10
2018-10-17T22:14:03.823Z,19.00
2018-10-17T22:16:37.576Z,19.10
2018-10-17T22:19:05.578Z,19.00
2018-10-17T22:21:33.288Z,19.00
2018-10-17T22:24:01.136Z,19.00
2018-10-17T22:26:28.895Z,19.00
2018-10-17T22:28:56.559Z,19.00
2018-10-17T22:31:24.416Z,18.90
2018-10-17T22:33:52.272Z,18.90
2018-10-17T22:36:20.098Z,18.90
2018-10-17T22:38:48.094Z,18.90
2018-10-17T22:41:15.795Z,18.80
2018-10-17T22:43:43.594Z,18.90
2018-10-17T22:46:11.315Z,18.90
2018-10-17T22:48:39.200Z,18.80
2018-10-17T22:51:07.128Z,18.80
2018-10-17T22:53:34.811Z,18.80
2018-10-17T22:56:02.634Z,18.80
2018-10-17T22:58:30.484Z,18.80
2018-10-17T23:00:58.381Z,18.80
2018-10-17T23:03:26.093Z,18.70
2018-10-17T23:05:54.122Z,18.70
2018-10-17T23:08:22.252Z,18.70
2018-10-17T23:10:50.547Z,18.60
2018-10-17T23:13:19.187Z,18.60
2018-10-17T23:15:47.128Z,18.60
2018-10-17T23:18:14.868Z,18.60
2018-10-17T23:20:42.678Z,18.50
2018-10-17T23:23:10.466Z,18.50
2018-10-17T23:25:38.321Z,18.50
2018-10-17T23:28:06.220Z,18.50
2018-10-17T23:30:34.142Z,18.50
2018-10-17T23:33:01.946Z,18.50
2018-10-17T23:35:29.638Z,18.40
2018-10-17T23:37:57.348Z,18.40
2018-10-17T23:40:25.015Z,18.40
2018-10-17T23:42:53.283Z,18.40
2018-10-17T23:45:20.969Z,18.40
2018-10-17T23:47:48.675Z,18.30
2018-10-17T23:50:16.507Z,18.30
2018-10-17T23:52:44.167Z,18.30
2018-10-17T23:55:11.876Z,18.30
2018-10-17T23:57:39.732Z,18.30
